sensor_id;sensor_type;location;lat;lon;timestamp;P1;durP1;ratioP1;P2;durP2;ratioP2
15498;SDS011;7851;52.260;6.030;2023-07-22T02:22:23;11.1;;;10;;
15498;SDS011;7851;52.260;6.030;2023-07-22T02:23:23;12;;;10.9;;
15498;SDS011;7851;52.260;6.030;2023-07-22T02:24:23;13.4;;;10.5;;
15498;SDS011;7851;52.260;6.030;2023-07-22T02:25:23;13.8;;;11.4;;
15498;SDS011;7851;52.260;6.030;2023-07-22T02:26:23;12.2;;;10.9;;
15498;SDS011;7851;52.260;6.030;2023-07-22T02:27:23;11.8;;;10.7;;
15498;SDS011;7851;52.260;6.030;2023-07-22T02:28:24;14.4;;;10.9;;
15498;SDS011;7851;52.260;6.030;2023-07-22T02:29:23;13.8;;;11.7;;
15498;SDS011;7851;52.260;6.030;2023-07-22T02:30:23;14.4;;;11.1;;
15498;SDS011;7851;52.260;6.030;2023-07-22T02:31:23;12.2;;;10.7;;
15498;SDS011;7851;52.260;6.030;2023-07-22T02:32:23;12.5;;;10.8;;
15498;SDS011;7851;52.260;6.030;2023-07-22T02:33:23;14.5;;;10.5;;
15498;SDS011;7851;52.260;6.030;2023-07-22T02:34:23;12.5;;;11.2;;
15498;SDS011;7851;52.260;6.030;2023-07-22T02:35:23;12.4;;;10;;
15498;SDS011;7851;52.260;6.030;2023-07-22T02:36:23;12.8;;;10.6;;
15498;SDS011;7851;52.260;6.030;2023-07-22T02:37:23;11.3;;;10.2;;
15498;SDS011;7851;52.260;6.030;2023-07-22T02:38:23;13.1;;;10.2;;
15498;SDS011;7851;52.260;6.030;2023-07-22T02:39:23;12.2;;;10.9;;
15498;SDS011;7851;52.260;6.030;2023-07-22T02:40:23;14.9;;;11.4;;
15498;SDS011;7851;52.260;6.030;2023-07-22T02:41:23;12.7;;;11.1;;
15498;SDS011;7851;52.260;6.030;2023-07-22T02:42:23;12.6;;;10.5;;
15498;SDS011;7851;52.260;6.030;2023-07-22T02:43:24;13.7;;;11;;
15498;SDS011;7851;52.260;6.030;2023-07-22T02:44:23;11.8;;;10.5;;
15498;SDS011;7851;52.260;6.030;2023-07-22T02:45:23;12.7;;;10.5;;
15498;SDS011;7851;52.260;6.030;2023-07-22T02:46:23;12.1;;;10.9;;
15498;SDS011;7851;52.260;6.030;2023-07-22T02:47:23;11.5;;;10.4;;
15498;SDS011;7851;52.260;6.030;2023-07-22T02:48:23;11.2;;;10;;
15498;SDS011;7851;52.260;6.030;2023-07-22T02:49:23;13.4;;;9.9;;
15498;SDS011;7851;52.260;6.030;2023-07-22T02:50:23;12.1;;;11;;
15498;SDS011;7851;52.260;6.030;2023-07-22T02:51:23;11.2;;;10.1;;
15498;SDS011;7851;52.260;6.030;2023-07-22T02:52:23;11.6;;;10.3;;
15498;SDS011;7851;52.260;6.030;2023-07-22T02:53:23;11.6;;;10.5;;
15498;SDS011;7851;52.260;6.030;2023-07-22T02:54:23;12.2;;;11;;
15498;SDS011;7851;52.260;6.030;2023-07-22T02:55:23;13.3;;;10.6;;
15498;SDS011;7851;52.260;6.030;2023-07-22T02:56:23;12.5;;;10.2;;
15498;SDS011;7851;52.260;6.030;2023-07-22T02:57:23;12.4;;;10.2;;
15498;SDS011;7851;52.260;6.030;2023-07-22T02:58:23;13.3;;;11.4;;
15498;SDS011;7851;52.260;6.030;2023-07-22T02:59:23;13;;;11;;
15498;SDS011;7851;52.260;6.030;2023-07-22T03:00:23;12.1;;;10.6;;
15498;SDS011;7851;52.260;6.030;2023-07-22T03:01:23;12.5;;;11.3;;
15498;SDS011;7851;52.260;6.030;2023-07-22T03:02:23;13;;;10.8;;
15498;SDS011;7851;52.260;6.030;2023-07-22T03:03:23;13.3;;;10.9;;
15498;SDS011;7851;52.260;6.030;2023-07-22T03:04:23;12.5;;;11.2;;
15498;SDS011;7851;52.260;6.030;2023-07-22T03:05:23;12.7;;;11.4;;
15498;SDS011;7851;52.260;6.030;2023-07-22T03:06:23;12.8;;;11.4;;
15498;SDS011;7851;52.260;6.030;2023-07-22T03:07:23;12.6;;;11.3;;
15498;SDS011;7851;52.260;6.030;2023-07-22T03:08:23;14.6;;;11.8;;
15498;SDS011;7851;52.260;6.030;2023-07-22T03:09:23;13.8;;;12.4;;
15498;SDS011;7851;52.260;6.030;2023-07-22T03:10:23;12.7;;;11.4;;
15498;SDS011;7851;52.260;6.030;2023-07-22T03:11:23;15.3;;;12;;
15498;SDS011;7851;52.260;6.030;2023-07-22T03:12:23;14.5;;;11.7;;
15498;SDS011;7851;52.260;6.030;2023-07-22T03:13:23;12.1;;;10.6;;
15498;SDS011;7851;52.260;6.030;2023-07-22T03:14:23;11.7;;;10.4;;
15498;SDS011;7851;52.260;6.030;2023-07-22T03:15:23;12.6;;;11.3;;
15498;SDS011;7851;52.260;6.030;2023-07-22T03:16:23;13.9;;;12.3;;
15498;SDS011;7851;52.260;6.030;2023-07-22T03:17:23;12.8;;;11.5;;
15498;SDS011;7851;52.260;6.030;2023-07-22T03:18:23;11.9;;;10.7;;
15498;SDS011;7851;52.260;6.030;2023-07-22T03:19:23;13.8;;;11.3;;
15498;SDS011;7851;52.260;6.030;2023-07-22T03:20:23;15.2;;;10.7;;
15498;SDS011;7851;52.260;6.030;2023-07-22T03:21:23;14;;;11.8;;
15498;SDS011;7851;52.260;6.030;2023-07-22T03:22:23;13.5;;;11.2;;
15498;SDS011;7851;52.260;6.030;2023-07-22T03:23:23;12.7;;;10.9;;
15498;SDS011;7851;52.260;6.030;2023-07-22T03:24:23;13.5;;;11.3;;
15498;SDS011;7851;52.260;6.030;2023-07-22T03:25:23;11.1;;;10;;
15498;SDS011;7851;52.260;6.030;2023-07-22T03:26:23;12.6;;;11;;
15498;SDS011;7851;52.260;6.030;2023-07-22T03:27:23;26.8;;;11.5;;
15498;SDS011;7851;52.260;6.030;2023-07-22T03:28:23;15.8;;;11.4;;
15498;SDS011;7851;52.260;6.030;2023-07-22T03:29:23;15.2;;;11.7;;
15498;SDS011;7851;52.260;6.030;2023-07-22T03:30:23;14.7;;;11.5;;
15498;SDS011;7851;52.260;6.030;2023-07-22T03:31:23;13;;;11.6;;
15498;SDS011;7851;52.260;6.030;2023-07-22T03:32:23;14.7;;;11.4;;
15498;SDS011;7851;52.260;6.030;2023-07-22T03:33:23;13.6;;;10.8;;
15498;SDS011;7851;52.260;6.030;2023-07-22T03:34:23;13.7;;;11.5;;
15498;SDS011;7851;52.260;6.030;2023-07-22T03:35:23;12.7;;;11;;
15498;SDS011;7851;52.260;6.030;2023-07-22T03:36:23;13.6;;;12.1;;
15498;SDS011;7851;52.260;6.030;2023-07-22T03:37:23;12.6;;;10.4;;
15498;SDS011;7851;52.260;6.030;2023-07-22T03:38:23;12.6;;;11.3;;
15498;SDS011;7851;52.260;6.030;2023-07-22T03:39:23;12.1;;;10.9;;
15498;SDS011;7851;52.260;6.030;2023-07-22T03:40:23;12.6;;;11;;
15498;SDS011;7851;52.260;6.030;2023-07-22T03:41:23;13.5;;;11.8;;
15498;SDS011;7851;52.260;6.030;2023-07-22T03:42:23;14.7;;;11.3;;
15498;SDS011;7851;52.260;6.030;2023-07-22T03:43:23;14.7;;;11.7;;
15498;SDS011;7851;52.260;6.030;2023-07-22T03:44:23;12.8;;;10.8;;
15498;SDS011;7851;52.260;6.030;2023-07-22T03:45:23;14.2;;;11.2;;
15498;SDS011;7851;52.260;6.030;2023-07-22T03:46:23;12.7;;;11.4;;
15498;SDS011;7851;52.260;6.030;2023-07-22T03:47:23;11.8;;;10.7;;
15498;SDS011;7851;52.260;6.030;2023-07-22T03:48:23;13;;;11.6;;
15498;SDS011;7851;52.260;6.030;2023-07-22T03:49:23;13.5;;;11.1;;
15498;SDS011;7851;52.260;6.030;2023-07-22T03:50:23;12.2;;;11;;
15498;SDS011;7851;52.260;6.030;2023-07-22T03:51:23;12.6;;;11.3;;
15498;SDS011;7851;52.260;6.030;2023-07-22T03:52:23;13.8;;;11.5;;
15498;SDS011;7851;52.260;6.030;2023-07-22T03:53:23;15.6;;;12.4;;
15498;SDS011;7851;52.260;6.030;2023-07-22T03:54:23;13.2;;;11.8;;
15498;SDS011;7851;52.260;6.030;2023-07-22T03:55:23;13.9;;;12.4;;
15498;SDS011;7851;52.260;6.030;2023-07-22T03:56:23;14.9;;;12.3;;
15498;SDS011;7851;52.260;6.030;2023-07-22T03:57:25;12.7;;;11.5;;
15498;SDS011;7851;52.260;6.030;2023-07-22T03:58:23;14.7;;;12.5;;
15498;SDS011;7851;52.260;6.030;2023-07-22T03:59:23;14.9;;;12.6;;
15498;SDS011;7851;52.260;6.030;2023-07-22T04:00:23;13.4;;;11.5;;
15498;SDS011;7851;52.260;6.030;2023-07-22T04:01:23;13;;;11.8;;
15498;SDS011;7851;52.260;6.030;2023-07-22T04:02:23;13.4;;;12;;
15498;SDS011;7851;52.260;6.030;2023-07-22T04:03:23;14.3;;;11.9;;
15498;SDS011;7851;52.260;6.030;2023-07-22T04:04:23;14;;;12.5;;
15498;SDS011;7851;52.260;6.030;2023-07-22T04:05:23;13.8;;;12.4;;
15498;SDS011;7851;52.260;6.030;2023-07-22T04:06:23;13.8;;;12.4;;
15498;SDS011;7851;52.260;6.030;2023-07-22T04:07:23;14;;;12.2;;
15498;SDS011;7851;52.260;6.030;2023-07-22T04:08:23;14.7;;;12.6;;
15498;SDS011;7851;52.260;6.030;2023-07-22T04:09:23;13.8;;;12.4;;
15498;SDS011;7851;52.260;6.030;2023-07-22T04:10:23;13.6;;;12.3;;
15498;SDS011;7851;52.260;6.030;2023-07-22T04:11:23;13.1;;;11.7;;
15498;SDS011;7851;52.260;6.030;2023-07-22T04:12:23;16.7;;;13.8;;
15498;SDS011;7851;52.260;6.030;2023-07-22T04:13:23;20.2;;;13.6;;
15498;SDS011;7851;52.260;6.030;2023-07-22T04:14:23;13.5;;;12.3;;
15498;SDS011;7851;52.260;6.030;2023-07-22T04:15:23;17.9;;;13.8;;
15498;SDS011;7851;52.260;6.030;2023-07-22T04:16:23;13.7;;;12.3;;
15498;SDS011;7851;52.260;6.030;2023-07-22T04:17:23;13.4;;;12;;
15498;SDS011;7851;52.260;6.030;2023-07-22T04:18:23;15.5;;;12.7;;
15498;SDS011;7851;52.260;6.030;2023-07-22T04:19:23;13.7;;;11.7;;
15498;SDS011;7851;52.260;6.030;2023-07-22T04:20:23;14.4;;;12.8;;
15498;SDS011;7851;52.260;6.030;2023-07-22T04:21:23;15;;;13.4;;
15498;SDS011;7851;52.260;6.030;2023-07-22T04:22:23;16.6;;;13.4;;
15498;SDS011;7851;52.260;6.030;2023-07-22T04:23:23;18;;;13.5;;
15498;SDS011;7851;52.260;6.030;2023-07-22T04:24:23;16.4;;;12.9;;
15498;SDS011;7851;52.260;6.030;2023-07-22T04:25:23;13.4;;;12;;
15498;SDS011;7851;52.260;6.030;2023-07-22T04:26:23;12.5;;;11.3;;
15498;SDS011;7851;52.260;6.030;2023-07-22T04:27:23;17.6;;;12.2;;
15498;SDS011;7851;52.260;6.030;2023-07-22T04:28:23;13.3;;;12;;
15498;SDS011;7851;52.260;6.030;2023-07-22T04:29:23;13.6;;;12.2;;
15498;SDS011;7851;52.260;6.030;2023-07-22T04:30:23;15.5;;;12.7;;
15498;SDS011;7851;52.260;6.030;2023-07-22T04:31:23;14.5;;;12.7;;
15498;SDS011;7851;52.260;6.030;2023-07-22T04:32:23;14;;;12.7;;
15498;SDS011;7851;52.260;6.030;2023-07-22T04:33:23;16.4;;;13.5;;
15498;SDS011;7851;52.260;6.030;2023-07-22T04:34:23;14.6;;;13.1;;
15498;SDS011;7851;52.260;6.030;2023-07-22T04:35:23;14.2;;;12.8;;
15498;SDS011;7851;52.260;6.030;2023-07-22T04:36:23;14.5;;;13;;
15498;SDS011;7851;52.260;6.030;2023-07-22T04:37:23;14.4;;;12.4;;
15498;SDS011;7851;52.260;6.030;2023-07-22T04:38:23;14;;;12.7;;
15498;SDS011;7851;52.260;6.030;2023-07-22T04:39:23;17.8;;;12.8;;
15498;SDS011;7851;52.260;6.030;2023-07-22T04:40:23;25.2;;;13.6;;
15498;SDS011;7851;52.260;6.030;2023-07-22T04:41:23;14.9;;;12.6;;
15498;SDS011;7851;52.260;6.030;2023-07-22T04:42:23;15.1;;;12.4;;
15498;SDS011;7851;52.260;6.030;2023-07-22T04:43:23;19.9;;;11.9;;
15498;SDS011;7851;52.260;6.030;2023-07-22T04:44:23;14.6;;;12.4;;
15498;SDS011;7851;52.260;6.030;2023-07-22T04:45:23;18.9;;;14;;
15498;SDS011;7851;52.260;6.030;2023-07-22T04:46:23;19.1;;;13.5;;
15498;SDS011;7851;52.260;6.030;2023-07-22T04:47:23;14.4;;;12.9;;
15498;SDS011;7851;52.260;6.030;2023-07-22T04:48:23;15.8;;;13.7;;
15498;SDS011;7851;52.260;6.030;2023-07-22T04:49:23;16.9;;;13.4;;
15498;SDS011;7851;52.260;6.030;2023-07-22T04:50:23;19.6;;;13.9;;
15498;SDS011;7851;52.260;6.030;2023-07-22T04:51:23;16.8;;;13.7;;
15498;SDS011;7851;52.260;6.030;2023-07-22T04:52:23;16.1;;;14.5;;
15498;SDS011;7851;52.260;6.030;2023-07-22T04:53:23;23.9;;;21.5;;
15498;SDS011;7851;52.260;6.030;2023-07-22T04:54:23;24.2;;;22.1;;
15498;SDS011;7851;52.260;6.030;2023-07-22T04:55:23;26.1;;;23.8;;
15498;SDS011;7851;52.260;6.030;2023-07-22T04:56:23;26.5;;;24.1;;
15498;SDS011;7851;52.260;6.030;2023-07-22T04:57:23;26;;;23.5;;
15498;SDS011;7851;52.260;6.030;2023-07-22T04:58:23;28.4;;;25.9;;
15498;SDS011;7851;52.260;6.030;2023-07-22T04:59:23;28.2;;;25.9;;
15498;SDS011;7851;52.260;6.030;2023-07-22T05:00:23;29.1;;;26.3;;
15498;SDS011;7851;52.260;6.030;2023-07-22T05:01:23;28.2;;;25.8;;
15498;SDS011;7851;52.260;6.030;2023-07-22T05:02:23;30;;;27.2;;
15498;SDS011;7851;52.260;6.030;2023-07-22T05:03:23;28.7;;;26.3;;
15498;SDS011;7851;52.260;6.030;2023-07-22T05:04:23;29.8;;;27.1;;
15498;SDS011;7851;52.260;6.030;2023-07-22T05:05:23;30.6;;;27.8;;
15498;SDS011;7851;52.260;6.030;2023-07-22T05:06:23;31.2;;;28;;
15498;SDS011;7851;52.260;6.030;2023-07-22T05:07:23;30.2;;;27.6;;
15498;SDS011;7851;52.260;6.030;2023-07-22T05:08:23;31.4;;;28.6;;
15498;SDS011;7851;52.260;6.030;2023-07-22T05:09:23;31.9;;;29.4;;
15498;SDS011;7851;52.260;6.030;2023-07-22T05:10:23;30.5;;;27.8;;
15498;SDS011;7851;52.260;6.030;2023-07-22T05:11:23;30.9;;;28.2;;
15498;SDS011;7851;52.260;6.030;2023-07-22T05:12:23;30.2;;;27.7;;
15498;SDS011;7851;52.260;6.030;2023-07-22T05:13:23;29.3;;;26.9;;
15498;SDS011;7851;52.260;6.030;2023-07-22T05:14:23;30.7;;;27.9;;
15498;SDS011;7851;52.260;6.030;2023-07-22T05:15:23;30.9;;;28.2;;
15498;SDS011;7851;52.260;6.030;2023-07-22T05:16:23;28.1;;;25.7;;
15498;SDS011;7851;52.260;6.030;2023-07-22T05:17:23;28.6;;;26.5;;
15498;SDS011;7851;52.260;6.030;2023-07-22T05:18:23;30.1;;;27.5;;
15498;SDS011;7851;52.260;6.030;2023-07-22T05:19:23;28.8;;;26.3;;
15498;SDS011;7851;52.260;6.030;2023-07-22T05:20:23;29.5;;;26.7;;
15498;SDS011;7851;52.260;6.030;2023-07-22T05:21:23;27.3;;;25;;
15498;SDS011;7851;52.260;6.030;2023-07-22T05:22:23;27.4;;;25.2;;
15498;SDS011;7851;52.260;6.030;2023-07-22T05:23:23;24.5;;;22.6;;
15498;SDS011;7851;52.260;6.030;2023-07-22T05:24:23;28;;;25.6;;
15498;SDS011;7851;52.260;6.030;2023-07-22T05:25:23;29;;;26.6;;
15498;SDS011;7851;52.260;6.030;2023-07-22T05:26:23;28;;;25.6;;
15498;SDS011;7851;52.260;6.030;2023-07-22T05:27:23;28.8;;;26.3;;
15498;SDS011;7851;52.260;6.030;2023-07-22T05:28:23;28.1;;;25.9;;
15498;SDS011;7851;52.260;6.030;2023-07-22T05:29:23;28.3;;;26;;
15498;SDS011;7851;52.260;6.030;2023-07-22T05:30:23;28.1;;;25.8;;
15498;SDS011;7851;52.260;6.030;2023-07-22T05:31:23;29.1;;;26.4;;
15498;SDS011;7851;52.260;6.030;2023-07-22T05:32:23;29.3;;;26.9;;
15498;SDS011;7851;52.260;6.030;2023-07-22T05:33:23;29.7;;;27;;
15498;SDS011;7851;52.260;6.030;2023-07-22T05:34:23;30;;;27.6;;
15498;SDS011;7851;52.260;6.030;2023-07-22T05:35:23;29.9;;;27.5;;
15498;SDS011;7851;52.260;6.030;2023-07-22T05:36:23;29.6;;;27.1;;
15498;SDS011;7851;52.260;6.030;2023-07-22T05:37:23;29.3;;;26.7;;
15498;SDS011;7851;52.260;6.030;2023-07-22T05:38:23;30.4;;;28.1;;
15498;SDS011;7851;52.260;6.030;2023-07-22T05:39:23;29.7;;;27;;
15498;SDS011;7851;52.260;6.030;2023-07-22T05:40:23;28.9;;;26.5;;
15498;SDS011;7851;52.260;6.030;2023-07-22T05:41:23;31.4;;;28.7;;
15498;SDS011;7851;52.260;6.030;2023-07-22T05:42:23;30.9;;;28.1;;
15498;SDS011;7851;52.260;6.030;2023-07-22T05:43:23;30.5;;;27.7;;
15498;SDS011;7851;52.260;6.030;2023-07-22T05:44:23;29.2;;;26.7;;
15498;SDS011;7851;52.260;6.030;2023-07-22T05:45:23;28;;;26;;
15498;SDS011;7851;52.260;6.030;2023-07-22T05:46:23;28.3;;;25.9;;
15498;SDS011;7851;52.260;6.030;2023-07-22T05:47:23;30.4;;;27.9;;
15498;SDS011;7851;52.260;6.030;2023-07-22T05:48:23;28;;;25.9;;
15498;SDS011;7851;52.260;6.030;2023-07-22T05:49:23;30.2;;;27.6;;
15498;SDS011;7851;52.260;6.030;2023-07-22T05:50:23;31;;;28.3;;
15498;SDS011;7851;52.260;6.030;2023-07-22T05:51:23;32.2;;;29.3;;
15498;SDS011;7851;52.260;6.030;2023-07-22T05:52:23;30;;;27.6;;
15498;SDS011;7851;52.260;6.030;2023-07-22T05:53:23;29.4;;;27.3;;
15498;SDS011;7851;52.260;6.030;2023-07-22T05:54:23;29.8;;;27.3;;
15498;SDS011;7851;52.260;6.030;2023-07-22T05:55:23;31.2;;;28.3;;
15498;SDS011;7851;52.260;6.030;2023-07-22T05:56:23;30.1;;;27.7;;
15498;SDS011;7851;52.260;6.030;2023-07-22T05:57:23;31.2;;;28.5;;
15498;SDS011;7851;52.260;6.030;2023-07-22T05:58:23;33.5;;;30.2;;
15498;SDS011;7851;52.260;6.030;2023-07-22T05:59:23;33.7;;;30.9;;
15498;SDS011;7851;52.260;6.030;2023-07-22T06:00:23;32.1;;;29.3;;
15498;SDS011;7851;52.260;6.030;2023-07-22T06:01:23;32.9;;;30.1;;
15498;SDS011;7851;52.260;6.030;2023-07-22T06:02:23;33.8;;;30.7;;
15498;SDS011;7851;52.260;6.030;2023-07-22T06:03:23;31.6;;;29;;
15498;SDS011;7851;52.260;6.030;2023-07-22T06:04:23;31.7;;;29;;
15498;SDS011;7851;52.260;6.030;2023-07-22T06:05:23;31.1;;;28.1;;
15498;SDS011;7851;52.260;6.030;2023-07-22T06:06:23;32.1;;;29.3;;
15498;SDS011;7851;52.260;6.030;2023-07-22T06:07:23;33.5;;;30.5;;
15498;SDS011;7851;52.260;6.030;2023-07-22T06:08:23;31.5;;;29;;
15498;SDS011;7851;52.260;6.030;2023-07-22T06:09:23;31.8;;;29.4;;
15498;SDS011;7851;52.260;6.030;2023-07-22T06:10:23;31.8;;;29.3;;
15498;SDS011;7851;52.260;6.030;2023-07-22T06:11:23;30;;;27.7;;
15498;SDS011;7851;52.260;6.030;2023-07-22T06:12:23;31.7;;;29.1;;
15498;SDS011;7851;52.260;6.030;2023-07-22T06:13:23;30.7;;;28.3;;
15498;SDS011;7851;52.260;6.030;2023-07-22T06:14:23;32.5;;;29.7;;
15498;SDS011;7851;52.260;6.030;2023-07-22T06:15:23;32.6;;;29.5;;
15498;SDS011;7851;52.260;6.030;2023-07-22T06:16:23;29.3;;;27.1;;
15498;SDS011;7851;52.260;6.030;2023-07-22T06:17:23;28.1;;;26.1;;
15498;SDS011;7851;52.260;6.030;2023-07-22T06:18:23;31.3;;;28.8;;
15498;SDS011;7851;52.260;6.030;2023-07-22T06:19:23;32.1;;;29.5;;
15498;SDS011;7851;52.260;6.030;2023-07-22T06:20:23;31;;;28.6;;
15498;SDS011;7851;52.260;6.030;2023-07-22T06:21:23;32.1;;;29.3;;
15498;SDS011;7851;52.260;6.030;2023-07-22T06:22:23;31.8;;;29.2;;
15498;SDS011;7851;52.260;6.030;2023-07-22T06:23:23;31.4;;;29.1;;
15498;SDS011;7851;52.260;6.030;2023-07-22T06:24:23;31.6;;;29.1;;
15498;SDS011;7851;52.260;6.030;2023-07-22T06:25:23;31;;;28.3;;
15498;SDS011;7851;52.260;6.030;2023-07-22T06:26:23;31.2;;;28.7;;
15498;SDS011;7851;52.260;6.030;2023-07-22T06:27:23;31.3;;;28.3;;
15498;SDS011;7851;52.260;6.030;2023-07-22T06:28:23;31.3;;;28.8;;
15498;SDS011;7851;52.260;6.030;2023-07-22T06:29:23;30.5;;;28;;
15498;SDS011;7851;52.260;6.030;2023-07-22T06:30:23;30.9;;;27.9;;
15498;SDS011;7851;52.260;6.030;2023-07-22T06:31:23;30.2;;;27.4;;
15498;SDS011;7851;52.260;6.030;2023-07-22T06:32:23;29.8;;;27.3;;
15498;SDS011;7851;52.260;6.030;2023-07-22T06:33:23;28.4;;;26.3;;
15498;SDS011;7851;52.260;6.030;2023-07-22T06:34:23;28.6;;;26.2;;
15498;SDS011;7851;52.260;6.030;2023-07-22T06:35:23;28.3;;;26.1;;
15498;SDS011;7851;52.260;6.030;2023-07-22T06:36:23;29;;;26.8;;
15498;SDS011;7851;52.260;6.030;2023-07-22T06:37:23;30.9;;;27.1;;
15498;SDS011;7851;52.260;6.030;2023-07-22T06:38:23;28.9;;;26.6;;
15498;SDS011;7851;52.260;6.030;2023-07-22T06:39:23;28.3;;;26.1;;
15498;SDS011;7851;52.260;6.030;2023-07-22T06:40:23;28.1;;;26;;
15498;SDS011;7851;52.260;6.030;2023-07-22T06:41:23;29.2;;;26.7;;
15498;SDS011;7851;52.260;6.030;2023-07-22T06:42:23;30.3;;;27.6;;
15498;SDS011;7851;52.260;6.030;2023-07-22T06:43:23;28.1;;;25.7;;
15498;SDS011;7851;52.260;6.030;2023-07-22T06:44:23;29;;;26.9;;
15498;SDS011;7851;52.260;6.030;2023-07-22T06:45:23;27.1;;;25.1;;
15498;SDS011;7851;52.260;6.030;2023-07-22T06:46:23;28.5;;;26.4;;
15498;SDS011;7851;52.260;6.030;2023-07-22T06:47:23;27.6;;;25.2;;
15498;SDS011;7851;52.260;6.030;2023-07-22T06:48:23;26.4;;;24.4;;
15498;SDS011;7851;52.260;6.030;2023-07-22T06:49:23;26.2;;;24;;
15498;SDS011;7851;52.260;6.030;2023-07-22T06:50:23;26.2;;;24;;
15498;SDS011;7851;52.260;6.030;2023-07-22T06:51:23;25.7;;;23.6;;
15498;SDS011;7851;52.260;6.030;2023-07-22T06:52:23;25.6;;;23.6;;
15498;SDS011;7851;52.260;6.030;2023-07-22T06:53:23;25.8;;;24;;
15498;SDS011;7851;52.260;6.030;2023-07-22T06:54:23;27.8;;;25.3;;
15498;SDS011;7851;52.260;6.030;2023-07-22T06:55:23;26.7;;;24.4;;
15498;SDS011;7851;52.260;6.030;2023-07-22T06:56:23;27.1;;;24.5;;
15498;SDS011;7851;52.260;6.030;2023-07-22T06:57:23;26.5;;;24;;
15498;SDS011;7851;52.260;6.030;2023-07-22T06:58:23;28.9;;;25.9;;
15498;SDS011;7851;52.260;6.030;2023-07-22T06:59:23;27.5;;;25.4;;
15498;SDS011;7851;52.260;6.030;2023-07-22T07:00:23;27.2;;;25.1;;
15498;SDS011;7851;52.260;6.030;2023-07-22T07:01:23;25.2;;;23.3;;
15498;SDS011;7851;52.260;6.030;2023-07-22T07:02:23;25.3;;;23.5;;
15498;SDS011;7851;52.260;6.030;2023-07-22T07:03:23;25;;;23;;
15498;SDS011;7851;52.260;6.030;2023-07-22T07:04:23;26.5;;;24.4;;
15498;SDS011;7851;52.260;6.030;2023-07-22T07:05:23;24.9;;;23;;
15498;SDS011;7851;52.260;6.030;2023-07-22T07:06:23;27.4;;;25.2;;
15498;SDS011;7851;52.260;6.030;2023-07-22T07:07:23;27.6;;;25.5;;
15498;SDS011;7851;52.260;6.030;2023-07-22T07:08:23;27.3;;;25.4;;
15498;SDS011;7851;52.260;6.030;2023-07-22T07:09:23;26.2;;;24.1;;
15498;SDS011;7851;52.260;6.030;2023-07-22T07:10:23;27.3;;;25.2;;
15498;SDS011;7851;52.260;6.030;2023-07-22T07:11:23;27.4;;;25.3;;
15498;SDS011;7851;52.260;6.030;2023-07-22T07:12:23;26;;;24;;
15498;SDS011;7851;52.260;6.030;2023-07-22T07:13:23;26.7;;;24.5;;
15498;SDS011;7851;52.260;6.030;2023-07-22T07:14:23;25.1;;;23.1;;
15498;SDS011;7851;52.260;6.030;2023-07-22T07:15:23;24.5;;;22.4;;
15498;SDS011;7851;52.260;6.030;2023-07-22T07:16:24;24.9;;;22.8;;
15498;SDS011;7851;52.260;6.030;2023-07-22T07:17:23;25.9;;;23.6;;
15498;SDS011;7851;52.260;6.030;2023-07-22T07:18:23;25.6;;;23.3;;
15498;SDS011;7851;52.260;6.030;2023-07-22T07:19:23;36.7;;;23.1;;
15498;SDS011;7851;52.260;6.030;2023-07-22T07:20:23;25;;;22.8;;
15498;SDS011;7851;52.260;6.030;2023-07-22T07:21:23;24.6;;;22.7;;
15498;SDS011;7851;52.260;6.030;2023-07-22T07:22:23;25.1;;;23.2;;
15498;SDS011;7851;52.260;6.030;2023-07-22T07:23:23;24.9;;;23;;
15498;SDS011;7851;52.260;6.030;2023-07-22T07:24:24;23.7;;;21.7;;
15498;SDS011;7851;52.260;6.030;2023-07-22T07:25:23;23.9;;;21.5;;
15498;SDS011;7851;52.260;6.030;2023-07-22T07:26:23;25.3;;;23.2;;
15498;SDS011;7851;52.260;6.030;2023-07-22T07:27:23;24;;;22.2;;
15498;SDS011;7851;52.260;6.030;2023-07-22T07:28:23;25.5;;;23.6;;
15498;SDS011;7851;52.260;6.030;2023-07-22T07:29:23;25.3;;;23.4;;
15498;SDS011;7851;52.260;6.030;2023-07-22T07:30:23;26.2;;;24.1;;
15498;SDS011;7851;52.260;6.030;2023-07-22T07:31:23;26.6;;;24.4;;
15498;SDS011;7851;52.260;6.030;2023-07-22T07:32:23;26.9;;;24.8;;
15498;SDS011;7851;52.260;6.030;2023-07-22T07:33:23;25.3;;;23.5;;
15498;SDS011;7851;52.260;6.030;2023-07-22T07:34:23;25.6;;;23.4;;
15498;SDS011;7851;52.260;6.030;2023-07-22T07:35:23;24.9;;;23;;
15498;SDS011;7851;52.260;6.030;2023-07-22T07:36:23;26.9;;;24.7;;
15498;SDS011;7851;52.260;6.030;2023-07-22T07:37:23;26.3;;;24.2;;
15498;SDS011;7851;52.260;6.030;2023-07-22T07:38:23;25.4;;;23.2;;
15498;SDS011;7851;52.260;6.030;2023-07-22T07:39:23;26.6;;;24.4;;
15498;SDS011;7851;52.260;6.030;2023-07-22T07:40:23;26.6;;;24.4;;
15498;SDS011;7851;52.260;6.030;2023-07-22T07:41:23;24.8;;;23;;
15498;SDS011;7851;52.260;6.030;2023-07-22T07:42:23;22.7;;;20.9;;
15498;SDS011;7851;52.260;6.030;2023-07-22T07:43:23;23.3;;;21.5;;
15498;SDS011;7851;52.260;6.030;2023-07-22T07:44:23;22.1;;;20.3;;
15498;SDS011;7851;52.260;6.030;2023-07-22T07:45:23;23.5;;;21.6;;
15498;SDS011;7851;52.260;6.030;2023-07-22T07:46:23;23.5;;;21.6;;
15498;SDS011;7851;52.260;6.030;2023-07-22T07:47:23;24.4;;;22.5;;
15498;SDS011;7851;52.260;6.030;2023-07-22T07:48:23;23.3;;;21.4;;
15498;SDS011;7851;52.260;6.030;2023-07-22T07:49:23;22.2;;;20.6;;
15498;SDS011;7851;52.260;6.030;2023-07-22T07:50:23;22.8;;;21.1;;
15498;SDS011;7851;52.260;6.030;2023-07-22T07:51:23;23.1;;;21.3;;
15498;SDS011;7851;52.260;6.030;2023-07-22T07:52:23;21.8;;;20.1;;
15498;SDS011;7851;52.260;6.030;2023-07-22T07:53:23;20.3;;;18.6;;
15498;SDS011;7851;52.260;6.030;2023-07-22T07:54:23;19.6;;;18.2;;
15498;SDS011;7851;52.260;6.030;2023-07-22T07:55:23;20.9;;;19.1;;
15498;SDS011;7851;52.260;6.030;2023-07-22T07:56:23;22;;;20.1;;
15498;SDS011;7851;52.260;6.030;2023-07-22T07:57:23;22.7;;;20.7;;
15498;SDS011;7851;52.260;6.030;2023-07-22T07:58:23;22.7;;;20.8;;
15498;SDS011;7851;52.260;6.030;2023-07-22T07:59:23;22.3;;;20.7;;
15498;SDS011;7851;52.260;6.030;2023-07-22T08:00:23;23.7;;;21.6;;
15498;SDS011;7851;52.260;6.030;2023-07-22T08:01:23;21.6;;;19.9;;
15498;SDS011;7851;52.260;6.030;2023-07-22T08:02:23;21.6;;;19.9;;
15498;SDS011;7851;52.260;6.030;2023-07-22T08:03:23;20.3;;;18.7;;
15498;SDS011;7851;52.260;6.030;2023-07-22T08:04:23;21.1;;;19.3;;
15498;SDS011;7851;52.260;6.030;2023-07-22T08:05:23;20.9;;;19.3;;
15498;SDS011;7851;52.260;6.030;2023-07-22T08:06:23;20.6;;;18.9;;
15498;SDS011;7851;52.260;6.030;2023-07-22T08:07:23;19.9;;;18.1;;
15498;SDS011;7851;52.260;6.030;2023-07-22T08:08:23;19;;;17.3;;
15498;SDS011;7851;52.260;6.030;2023-07-22T08:09:23;18.8;;;17.2;;
15498;SDS011;7851;52.260;6.030;2023-07-22T08:10:23;16.9;;;15.6;;
15498;SDS011;7851;52.260;6.030;2023-07-22T08:11:23;16.3;;;15.1;;
15498;SDS011;7851;52.260;6.030;2023-07-22T08:12:23;16.2;;;15.1;;
15498;SDS011;7851;52.260;6.030;2023-07-22T08:13:23;17.7;;;16.1;;
15498;SDS011;7851;52.260;6.030;2023-07-22T08:14:23;18;;;16.7;;
15498;SDS011;7851;52.260;6.030;2023-07-22T08:15:23;17.8;;;16;;
15498;SDS011;7851;52.260;6.030;2023-07-22T08:16:23;16.7;;;15.5;;
15498;SDS011;7851;52.260;6.030;2023-07-22T08:17:23;17.6;;;16.3;;
15498;SDS011;7851;52.260;6.030;2023-07-22T08:18:23;17.9;;;16.5;;
15498;SDS011;7851;52.260;6.030;2023-07-22T08:19:23;17.7;;;16.4;;
15498;SDS011;7851;52.260;6.030;2023-07-22T08:20:23;17.5;;;16.1;;
15498;SDS011;7851;52.260;6.030;2023-07-22T08:21:23;16.7;;;15.4;;
15498;SDS011;7851;52.260;6.030;2023-07-22T08:22:23;16.1;;;14.8;;
15498;SDS011;7851;52.260;6.030;2023-07-22T08:23:23;16.4;;;15.2;;
15498;SDS011;7851;52.260;6.030;2023-07-22T08:24:23;17.3;;;16;;
15498;SDS011;7851;52.260;6.030;2023-07-22T08:25:23;16.2;;;15.1;;
15498;SDS011;7851;52.260;6.030;2023-07-22T08:26:23;17;;;15.7;;
15498;SDS011;7851;52.260;6.030;2023-07-22T08:27:23;15.8;;;14.7;;
15498;SDS011;7851;52.260;6.030;2023-07-22T08:28:23;16;;;14.8;;
15498;SDS011;7851;52.260;6.030;2023-07-22T08:29:23;16.9;;;15.5;;
15498;SDS011;7851;52.260;6.030;2023-07-22T08:30:23;15.5;;;14.3;;
15498;SDS011;7851;52.260;6.030;2023-07-22T08:31:23;17.9;;;15.3;;